createdAt,value
2019-05-07T00:00:38.299Z,3.5
2019-05-07T00:01:39.063Z,3.6
2019-05-07T00:02:43.505Z,3.5
2019-05-07T00:03:44.291Z,3.6
2019-05-07T00:04:45.061Z,3.5
2019-05-07T00:05:45.817Z,3.5
2019-05-07T00:06:46.589Z,3.6
2019-05-07T00:07:47.341Z,3.5
2019-05-07T00:08:53.298Z,3.6
2019-05-07T00:09:54.053Z,3.6
2019-05-07T00:10:54.815Z,3.6
2019-05-07T00:11:55.585Z,3.6
2019-05-07T00:12:56.339Z,3.6
2019-05-07T00:13:57.132Z,3.6
2019-05-07T00:15:04.936Z,3.7
2019-05-07T00:16:05.685Z,3.6
2019-05-07T00:17:06.446Z,3.6
2019-05-07T00:18:07.231Z,3.6
2019-05-07T00:19:08.793Z,3.6
2019-05-07T00:20:09.558Z,3.6
2019-05-07T00:21:12.372Z,3.6
2019-05-07T00:22:13.391Z,3.5
2019-05-07T00:23:14.165Z,3.5
2019-05-07T00:24:14.966Z,3.5
2019-05-07T00:26:16.239Z,3.4
2019-05-07T00:27:17.005Z,3.4
2019-05-07T00:28:17.766Z,3.4
2019-05-07T00:29:23.218Z,3.4
2019-05-07T00:30:23.975Z,3.4
2019-05-07T00:31:24.735Z,3.3
2019-05-07T00:33:25.997Z,3.4
2019-05-07T00:34:26.795Z,3.4
2019-05-07T00:35:27.565Z,3.4
2019-05-07T00:36:28.335Z,3.4
2019-05-07T00:37:29.084Z,3.4
2019-05-07T00:39:33.538Z,3.4
2019-05-07T00:40:34.296Z,3.3
2019-05-07T00:41:35.066Z,3.3
2019-05-07T00:44:36.867Z,3.3
2019-05-07T00:45:37.631Z,3.4
2019-05-07T00:46:38.391Z,3.4
2019-05-07T00:47:43.305Z,3.3
2019-05-07T00:48:44.063Z,3.3
2019-05-07T00:49:52.973Z,3.3
2019-05-07T00:50:53.738Z,3.3
2019-05-07T00:51:57.517Z,3.3
2019-05-07T00:52:58.290Z,3.3
2019-05-07T00:53:59.065Z,3.3
2019-05-07T00:54:59.867Z,3.3
2019-05-07T00:56:03.243Z,3.3
2019-05-07T00:57:04.011Z,3.3
2019-05-07T00:58:04.775Z,3.3
2019-05-07T00:59:05.545Z,3.3
2019-05-07T01:00:07.131Z,3.3
2019-05-07T01:01:07.904Z,3.3
2019-05-07T01:02:08.657Z,3.3
2019-05-07T01:03:09.426Z,3.3
2019-05-07T01:04:12.471Z,3.4
2019-05-07T01:05:13.247Z,3.3
2019-05-07T01:06:14.009Z,3.3
2019-05-07T01:07:14.769Z,3.3
2019-05-07T01:08:15.529Z,3.3
2019-05-07T01:09:16.294Z,3.3
2019-05-07T01:10:22.044Z,3.3
2019-05-07T01:11:23.405Z,3.3
2019-05-07T01:12:24.177Z,3.4
2019-05-07T01:13:24.935Z,3.4
2019-05-07T01:14:25.693Z,3.4
2019-05-07T01:15:35.107Z,3.4
2019-05-07T01:16:35.875Z,3.4
2019-05-07T01:17:36.635Z,3.3
2019-05-07T01:18:37.392Z,3.3
2019-05-07T01:19:38.165Z,3.4
2019-05-07T01:20:43.155Z,3.4
2019-05-07T01:21:44.077Z,3.4
2019-05-07T01:22:44.841Z,3.4
2019-05-07T01:23:45.605Z,3.4
2019-05-07T01:24:46.367Z,3.4
2019-05-07T01:25:47.147Z,3.3
2019-05-07T01:26:47.907Z,3.3
2019-05-07T01:27:48.681Z,3.3
2019-05-07T01:28:49.440Z,3.3
2019-05-07T01:29:52.505Z,3.3
2019-05-07T01:30:54.405Z,3.3
2019-05-07T01:31:55.171Z,3.3
2019-05-07T01:32:55.941Z,3.3
2019-05-07T01:33:56.707Z,3.3
2019-05-07T01:35:02.846Z,3.3
2019-05-07T01:36:03.638Z,3.3
2019-05-07T01:37:04.395Z,3.3
2019-05-07T01:38:05.165Z,3.3
2019-05-07T01:39:05.932Z,3.3
2019-05-07T01:40:06.698Z,3.3
2019-05-07T01:41:12.238Z,3.3
2019-05-07T01:42:13.491Z,3.3
2019-05-07T01:43:14.250Z,3.3
2019-05-07T01:44:15.013Z,3.4
2019-05-07T01:45:15.774Z,3.4
2019-05-07T01:46:16.558Z,3.4
2019-05-07T01:47:17.324Z,3.4
2019-05-07T01:48:18.091Z,3.4
2019-05-07T01:49:18.859Z,3.3
2019-05-07T01:50:19.623Z,3.3
2019-05-07T01:51:25.255Z,3.3
2019-05-07T01:52:25.983Z,3.3
2019-05-07T01:53:26.745Z,3.3
2019-05-07T01:54:27.507Z,3.3
2019-05-07T01:55:28.281Z,3.3
2019-05-07T01:56:29.069Z,3.4
2019-05-07T01:57:29.830Z,3.3
2019-05-07T01:58:33.958Z,3.3
2019-05-07T01:59:34.819Z,3.2
2019-05-07T02:00:35.613Z,3.2
2019-05-07T02:01:39.187Z,3.2
2019-05-07T02:02:39.951Z,3.2
2019-05-07T02:03:43.031Z,3.3
2019-05-07T02:04:43.863Z,3.3
2019-05-07T02:05:44.623Z,3.2
2019-05-07T02:06:45.410Z,3.2
2019-05-07T02:07:46.180Z,3.2
2019-05-07T02:08:46.936Z,3.2
2019-05-07T02:09:47.695Z,3.2
2019-05-07T02:10:48.459Z,3.1
2019-05-07T02:11:53.459Z,3.1
2019-05-07T02:13:54.713Z,3.1
2019-05-07T02:14:55.479Z,3.2
2019-05-07T02:16:04.538Z,3.1
2019-05-07T02:17:05.354Z,3.1
2019-05-07T02:18:06.112Z,3.1
2019-05-07T02:19:06.883Z,3.1
2019-05-07T02:20:07.643Z,3
2019-05-07T02:22:14.117Z,3
2019-05-07T02:24:15.388Z,3
2019-05-07T02:25:16.143Z,3
2019-05-07T02:26:16.903Z,3
2019-05-07T02:27:17.703Z,3
2019-05-07T02:28:18.465Z,3
2019-05-07T02:30:19.724Z,3
2019-05-07T02:31:24.752Z,2.9
2019-05-07T02:32:26.330Z,3
2019-05-07T02:33:27.091Z,3
2019-05-07T02:34:27.857Z,2.9
2019-05-07T02:35:28.609Z,3
2019-05-07T02:36:29.377Z,2.9
2019-05-07T02:37:56.352Z,2.9
2019-05-07T02:38:57.805Z,2.9
2019-05-07T02:39:58.557Z,2.9
2019-05-07T02:40:59.322Z,2.9
2019-05-07T02:42:04.421Z,2.8
2019-05-07T02:43:07.962Z,2.8
2019-05-07T02:44:08.727Z,2.7
2019-05-07T02:45:09.498Z,2.7
2019-05-07T02:46:35.984Z,2.7
2019-05-07T02:47:37.378Z,2.7
2019-05-07T02:48:38.187Z,2.7
2019-05-07T02:49:38.951Z,2.7
2019-05-07T02:50:39.734Z,2.7
2019-05-07T02:51:44.334Z,2.7
2019-05-07T02:52:45.124Z,2.7
2019-05-07T02:53:54.424Z,2.7
2019-05-07T02:54:55.181Z,2.7
2019-05-07T02:55:55.961Z,2.7
2019-05-07T02:56:56.727Z,2.7
2019-05-07T02:57:57.507Z,2.7
2019-05-07T02:58:58.261Z,2.6
2019-05-07T02:59:59.024Z,2.6
2019-05-07T03:00:59.793Z,2.6
2019-05-07T03:02:03.945Z,2.5
2019-05-07T03:03:05.421Z,2.5
2019-05-07T03:04:06.940Z,2.5
2019-05-07T03:05:07.732Z,2.5
2019-05-07T03:06:08.471Z,2.5
2019-05-07T03:07:09.241Z,2.4
2019-05-07T03:08:12.914Z,2.4
2019-05-07T03:09:15.394Z,2.4
2019-05-07T03:10:16.181Z,2.4
2019-05-07T03:11:16.906Z,2.4
2019-05-07T03:12:17.686Z,2.4
2019-05-07T03:13:18.477Z,2.4
2019-05-07T03:14:26.609Z,2.4
2019-05-07T03:15:27.327Z,2.4
2019-05-07T03:16:49.682Z,2.4
2019-05-07T03:17:54.730Z,2.4
2019-05-07T03:18:55.505Z,2.4
2019-05-07T03:19:56.270Z,2.4
2019-05-07T03:20:57.038Z,2.4
2019-05-07T03:21:57.804Z,2.3
2019-05-07T03:22:58.563Z,2.3
2019-05-07T03:23:59.335Z,2.3
2019-05-07T03:25:05.017Z,2.3
2019-05-07T03:26:05.783Z,2.3
2019-05-07T03:27:06.550Z,2.3
2019-05-07T03:28:07.300Z,2.2
2019-05-07T03:29:08.080Z,2.3
2019-05-07T03:30:08.854Z,2.3
2019-05-07T03:31:09.634Z,2.3
2019-05-07T03:32:10.415Z,2.3
2019-05-07T03:33:27.074Z,2.3
2019-05-07T03:34:28.035Z,2.3
2019-05-07T03:35:38.966Z,2.2
2019-05-07T03:36:55.685Z,2.2
2019-05-07T03:37:58.183Z,2.2
2019-05-07T03:39:04.372Z,2.2
2019-05-07T03:40:05.187Z,2.2
2019-05-07T03:41:05.934Z,2.1
2019-05-07T03:42:06.777Z,2.1
2019-05-07T03:43:07.546Z,2.2
2019-05-07T03:44:13.939Z,2.2
2019-05-07T03:45:14.718Z,2.2
2019-05-07T03:46:16.249Z,2.1
2019-05-07T03:47:17.013Z,2.1
2019-05-07T03:48:17.785Z,2.1
2019-05-07T03:49:18.545Z,2.1
2019-05-07T03:50:19.322Z,2.1
2019-05-07T03:51:24.488Z,2.1
2019-05-07T03:52:25.424Z,2.1
2019-05-07T03:53:26.184Z,2
2019-05-07T03:54:26.938Z,2
2019-05-07T03:55:27.728Z,2
2019-05-07T03:56:34.858Z,2
2019-05-07T03:57:35.618Z,2
2019-05-07T03:58:36.378Z,2
2019-05-07T03:59:37.157Z,1.9
2019-05-07T04:00:37.926Z,1.9
2019-05-07T04:01:38.676Z,1.9
2019-05-07T04:02:39.459Z,1.9
2019-05-07T04:04:43.933Z,1.8
2019-05-07T04:05:44.723Z,1.9
2019-05-07T04:06:46.254Z,1.9
2019-05-07T04:08:47.515Z,1.9
2019-05-07T04:09:48.281Z,1.9
2019-05-07T04:10:49.061Z,1.9
2019-05-07T04:11:52.816Z,2
2019-05-07T04:12:54.168Z,2
2019-05-07T04:14:55.428Z,1.9
2019-05-07T04:15:56.223Z,1.9
2019-05-07T04:17:26.797Z,1.9
2019-05-07T04:19:28.549Z,1.8
2019-05-07T04:20:29.321Z,1.8
2019-05-07T04:21:30.100Z,1.8
2019-05-07T04:22:35.489Z,1.7
2019-05-07T04:23:36.259Z,1.7
2019-05-07T04:24:37.022Z,1.8
2019-05-07T04:25:37.783Z,1.8
2019-05-07T04:26:38.581Z,1.8
2019-05-07T04:27:47.862Z,1.8
2019-05-07T04:28:48.655Z,1.8
2019-05-07T04:29:49.401Z,1.8
2019-05-07T04:30:54.042Z,1.7
2019-05-07T04:31:54.816Z,1.8
2019-05-07T04:32:55.577Z,1.8
2019-05-07T04:33:56.332Z,1.8
2019-05-07T04:34:57.117Z,1.8
2019-05-07T04:35:57.883Z,1.8
2019-05-07T04:36:58.653Z,1.8
2019-05-07T04:38:07.939Z,1.8
2019-05-07T04:39:08.704Z,1.9
2019-05-07T04:40:09.472Z,1.9
2019-05-07T04:41:10.239Z,1.9
2019-05-07T04:42:14.488Z,1.9
2019-05-07T04:43:15.274Z,1.9
2019-05-07T04:44:16.038Z,1.9
2019-05-07T04:45:16.821Z,1.9
2019-05-07T04:46:17.574Z,2
2019-05-07T04:47:47.421Z,2
2019-05-07T04:48:52.592Z,2
2019-05-07T04:49:54.431Z,2
2019-05-07T04:50:55.192Z,2
2019-05-07T04:51:55.953Z,2
2019-05-07T04:52:56.746Z,2
2019-05-07T04:53:57.511Z,2
2019-05-07T04:54:58.275Z,2
2019-05-07T04:55:59.030Z,2
2019-05-07T04:56:59.793Z,2
2019-05-07T04:58:09.781Z,2
2019-05-07T04:59:16.017Z,2
2019-05-07T05:00:16.783Z,2
2019-05-07T05:01:17.538Z,2
2019-05-07T05:02:18.303Z,2.1
2019-05-07T05:03:19.097Z,2.1
2019-05-07T05:04:35.178Z,2.2
2019-05-07T05:05:35.948Z,2.3
2019-05-07T05:06:36.702Z,2.4
2019-05-07T05:07:37.470Z,2.5
2019-05-07T05:08:38.243Z,2.6
2019-05-07T05:09:43.422Z,2.7
2019-05-07T05:10:44.258Z,2.9
2019-05-07T05:11:45.027Z,3
2019-05-07T05:12:45.792Z,3.2
2019-05-07T05:13:46.583Z,3.4
2019-05-07T05:14:47.346Z,3.6
2019-05-07T05:15:48.112Z,3.8
2019-05-07T05:16:48.867Z,4
2019-05-07T05:17:54.700Z,4.1
2019-05-07T05:18:55.485Z,4.3
2019-05-07T05:20:00.100Z,4.5
2019-05-07T05:21:03.375Z,4.7
2019-05-07T05:22:04.127Z,4.8
2019-05-07T05:23:04.892Z,5
2019-05-07T05:24:05.680Z,5.1
2019-05-07T05:25:06.441Z,5.2
2019-05-07T05:26:07.198Z,5.4
2019-05-07T05:27:07.966Z,5.5
2019-05-07T05:28:08.726Z,5.5
2019-05-07T05:29:10.044Z,5.7
2019-05-07T05:30:15.655Z,5.8
2019-05-07T05:31:16.418Z,6
2019-05-07T05:32:17.178Z,6.2
2019-05-07T05:33:17.939Z,6.3
2019-05-07T05:34:18.742Z,6.5
2019-05-07T05:35:19.512Z,6.6
2019-05-07T05:36:23.015Z,6.7
2019-05-07T05:37:23.787Z,6.8
2019-05-07T05:38:24.546Z,7
2019-05-07T05:39:25.367Z,7.1
2019-05-07T05:40:43.501Z,7.2
2019-05-07T05:41:44.297Z,7.4
2019-05-07T05:42:45.029Z,7.5
2019-05-07T05:43:45.789Z,7.6
2019-05-07T05:44:46.569Z,7.7
2019-05-07T05:45:47.345Z,7.8
2019-05-07T05:46:48.108Z,8
2019-05-07T05:48:08.780Z,8.1
2019-05-07T05:49:09.558Z,8.1
2019-05-07T05:50:14.213Z,8.1
2019-05-07T05:51:15.746Z,8.3
2019-05-07T05:52:16.504Z,8.4
2019-05-07T05:53:17.264Z,8.6
2019-05-07T05:54:18.033Z,8.7
2019-05-07T05:55:18.824Z,8.8
2019-05-07T05:56:19.743Z,9.1
2019-05-07T05:58:24.928Z,9.2
2019-05-07T05:59:51.905Z,9.2
2019-05-07T06:00:56.204Z,9.3
2019-05-07T06:03:07.612Z,9.3
2019-05-07T06:05:08.881Z,9.7
2019-05-07T06:06:09.665Z,9.8
2019-05-07T06:07:15.323Z,9.8
2019-05-07T06:08:18.364Z,9.9
2019-05-07T06:09:19.118Z,10.1
2019-05-07T06:10:23.137Z,10.1
2019-05-07T06:11:23.912Z,10
2019-05-07T06:12:25.455Z,10.1
2019-05-07T06:13:26.220Z,10.2
2019-05-07T06:15:27.474Z,10.2
2019-05-07T06:16:28.249Z,10.2
2019-05-07T06:17:29.019Z,10.1
2019-05-07T06:18:32.497Z,10.4
2019-05-07T06:19:33.515Z,10.6
2019-05-07T06:20:34.276Z,10.7
2019-05-07T06:21:35.056Z,10.7
2019-05-07T06:22:38.589Z,10.7
2019-05-07T06:23:39.357Z,10.6
2019-05-07T06:24:43.361Z,10.7
2019-05-07T06:27:45.169Z,10.6
2019-05-07T06:28:45.930Z,10.7
2019-05-07T06:29:46.708Z,10.7
2019-05-07T06:30:47.462Z,10.6
2019-05-07T06:31:48.260Z,10.6
2019-05-07T06:32:53.267Z,10.8
2019-05-07T06:33:54.037Z,10.6
2019-05-07T06:34:54.805Z,10.7
2019-05-07T06:35:55.582Z,10.8
2019-05-07T06:36:56.361Z,11
2019-05-07T06:37:57.134Z,11.1
2019-05-07T06:38:57.896Z,11.2
2019-05-07T06:39:58.659Z,11.2
2019-05-07T06:40:59.424Z,11.4
2019-05-07T06:42:02.663Z,11.5
2019-05-07T06:43:04.185Z,11.6
2019-05-07T06:44:04.948Z,11.7
2019-05-07T06:45:05.706Z,11.7
2019-05-07T06:46:06.475Z,11.7
2019-05-07T06:47:07.265Z,11.6
2019-05-07T06:48:08.087Z,11.8
2019-05-07T06:49:08.847Z,12
2019-05-07T06:50:09.598Z,12.2
2019-05-07T06:51:13.350Z,12.3
2019-05-07T06:52:14.135Z,12.2
2019-05-07T06:53:17.691Z,11.7
2019-05-07T06:54:18.447Z,12.2
2019-05-07T06:55:19.209Z,12.4
2019-05-07T06:56:19.977Z,12.5
2019-05-07T06:57:22.842Z,12.7
2019-05-07T06:58:23.610Z,12.8
2019-05-07T06:59:24.369Z,12.7
2019-05-07T07:00:25.132Z,12.5
2019-05-07T07:01:25.895Z,12.4
2019-05-07T07:02:26.685Z,12.5
2019-05-07T07:03:33.479Z,12.8
2019-05-07T07:04:34.235Z,12.8
2019-05-07T07:05:35.013Z,12.7
2019-05-07T07:06:35.777Z,12.5
2019-05-07T07:07:38.189Z,12.7
2019-05-07T07:08:38.956Z,13
2019-05-07T07:09:39.712Z,13.1
2019-05-07T07:10:43.324Z,13.1
2019-05-07T07:11:44.111Z,12.8
2019-05-07T07:12:44.959Z,13
2019-05-07T07:13:46.476Z,13.3
2019-05-07T07:14:47.241Z,13.4
2019-05-07T07:15:47.996Z,13.5
2019-05-07T07:16:48.763Z,13.5
2019-05-07T07:17:49.554Z,13.6
2019-05-07T07:18:56.355Z,13.3
2019-05-07T07:19:57.128Z,13.2
2019-05-07T07:20:57.884Z,13.4
2019-05-07T07:21:58.649Z,13.7
2019-05-07T07:22:59.453Z,13.9
2019-05-07T07:24:05.388Z,13.7
2019-05-07T07:25:07.394Z,13.9
2019-05-07T07:26:08.158Z,13.9
2019-05-07T07:27:08.920Z,14
2019-05-07T07:28:09.706Z,14.4
2019-05-07T07:29:13.480Z,14.5
2019-05-07T07:30:14.237Z,14.7
2019-05-07T07:31:15.019Z,14.6
2019-05-07T07:32:15.782Z,14.5
2019-05-07T07:33:16.566Z,14.1
2019-05-07T07:34:22.443Z,14
2019-05-07T07:35:23.482Z,13.8
2019-05-07T07:36:24.240Z,14
2019-05-07T07:37:25.030Z,14
2019-05-07T07:38:25.976Z,14.1
2019-05-07T07:39:26.749Z,14.2
2019-05-07T07:40:27.520Z,14.2
2019-05-07T07:41:28.276Z,14.3
2019-05-07T07:42:29.030Z,14.2
2019-05-07T07:43:29.844Z,14.1
2019-05-07T07:44:35.731Z,14.3
2019-05-07T07:45:36.480Z,13.9
2019-05-07T07:46:37.250Z,13.7
2019-05-07T07:47:38.015Z,13.8
2019-05-07T07:48:38.788Z,13.8
2019-05-07T07:49:41.842Z,13.8
2019-05-07T07:50:42.832Z,14
2019-05-07T07:51:46.468Z,13.9
2019-05-07T07:52:47.237Z,13.9
2019-05-07T07:53:48.024Z,13.9
2019-05-07T07:54:53.655Z,13.7
2019-05-07T07:55:54.420Z,14
2019-05-07T07:56:57.376Z,14
2019-05-07T07:57:58.114Z,14.1
2019-05-07T07:59:59.398Z,14
2019-05-07T08:01:00.170Z,14.1
2019-05-07T08:02:03.279Z,14.2
2019-05-07T08:03:04.043Z,14.2
2019-05-07T08:04:04.824Z,14.2
2019-05-07T08:05:06.363Z,14.1
2019-05-07T08:06:07.125Z,14
2019-05-07T08:07:07.893Z,14
2019-05-07T08:08:08.651Z,13.9
2019-05-07T08:09:09.440Z,13.9
2019-05-07T08:10:10.208Z,14
2019-05-07T08:11:13.520Z,14.1
2019-05-07T08:12:14.296Z,14.1
2019-05-07T08:13:15.043Z,14.3
2019-05-07T08:14:15.834Z,14.5
2019-05-07T08:16:25.731Z,14.5
2019-05-07T08:17:26.493Z,14.5
2019-05-07T08:19:28.051Z,14.5
2019-05-07T08:20:28.809Z,14.3
2019-05-07T08:21:29.571Z,14.1
2019-05-07T08:22:30.331Z,14.2
2019-05-07T08:23:33.600Z,14.2
2019-05-07T08:24:34.370Z,14.1
2019-05-07T08:26:38.405Z,14
2019-05-07T08:27:39.168Z,13.9
2019-05-07T08:28:42.668Z,14.2
2019-05-07T08:29:43.828Z,14.3
2019-05-07T08:30:44.595Z,14.3
2019-05-07T08:31:45.356Z,14.2
2019-05-07T08:32:46.118Z,14.1
2019-05-07T08:35:52.860Z,14.1
2019-05-07T08:36:53.624Z,14.1
2019-05-07T08:37:54.388Z,13.9
2019-05-07T08:38:55.146Z,13.7
2019-05-07T08:39:55.930Z,13.8
2019-05-07T08:40:56.704Z,13.9
2019-05-07T08:41:57.470Z,14
2019-05-07T08:42:58.229Z,13.6
2019-05-07T08:44:15.784Z,13.5
2019-05-07T08:45:16.729Z,13.5
2019-05-07T08:46:18.521Z,13.3
2019-05-07T08:47:19.283Z,13.5
2019-05-07T08:48:22.294Z,13.7
2019-05-07T08:49:43.185Z,13.6
2019-05-07T08:50:44.346Z,13.1
2019-05-07T08:51:45.110Z,13.2
2019-05-07T08:52:45.874Z,13.5
2019-05-07T08:53:46.650Z,13.7
2019-05-07T08:54:47.420Z,13.6
2019-05-07T08:55:48.197Z,13.7
2019-05-07T08:56:53.427Z,13.6
2019-05-07T08:57:54.232Z,13.5
2019-05-07T08:58:54.996Z,13.6
2019-05-07T09:00:04.934Z,13.6
2019-05-07T09:01:05.667Z,13.6
2019-05-07T09:02:06.444Z,13.4
2019-05-07T09:03:25.072Z,13.1
2019-05-07T09:04:25.816Z,13.1
2019-05-07T09:05:26.589Z,13.1
2019-05-07T09:06:27.357Z,13.3
2019-05-07T09:07:28.998Z,13.2
2019-05-07T09:08:31.653Z,13.1
2019-05-07T09:09:33.351Z,12.9
2019-05-07T09:10:34.142Z,13.1
2019-05-07T09:11:34.908Z,13.1
2019-05-07T09:12:35.670Z,13.1
2019-05-07T09:13:36.427Z,13.2
2019-05-07T09:14:37.194Z,13.2
2019-05-07T09:15:37.994Z,13.2
2019-05-07T09:16:38.758Z,13.2
2019-05-07T09:17:43.205Z,13
2019-05-07T09:18:43.963Z,13.1
2019-05-07T09:19:55.125Z,13.1
2019-05-07T09:20:55.874Z,12.7
2019-05-07T09:21:56.645Z,12.7
2019-05-07T09:22:57.423Z,12.6
2019-05-07T09:23:58.180Z,12.6
2019-05-07T09:24:58.934Z,12.7
2019-05-07T09:25:59.718Z,12.8
2019-05-07T09:27:03.487Z,12.9
2019-05-07T09:28:05.024Z,13.1
2019-05-07T09:29:05.784Z,13.3
2019-05-07T09:30:06.554Z,13.3
2019-05-07T09:31:07.354Z,13.1
2019-05-07T09:32:08.127Z,13.1
2019-05-07T09:33:08.902Z,13.2
2019-05-07T09:34:11.449Z,12.9
2019-05-07T09:35:13.188Z,12.9
2019-05-07T09:36:13.967Z,12.9
2019-05-07T09:37:14.729Z,12.9
2019-05-07T09:38:18.281Z,12.9
2019-05-07T09:39:19.039Z,13
2019-05-07T09:40:22.110Z,13.1
2019-05-07T09:41:22.959Z,13.1
2019-05-07T09:42:23.754Z,13.1
2019-05-07T09:43:24.517Z,13.2
2019-05-07T09:44:25.262Z,12.9
2019-05-07T09:45:26.029Z,12.9
2019-05-07T09:46:26.837Z,12.7
2019-05-07T09:47:27.582Z,12.7
2019-05-07T09:48:34.536Z,12.8
2019-05-07T09:49:35.296Z,12.8
2019-05-07T09:50:36.063Z,12.9
2019-05-07T09:51:36.832Z,12.8
2019-05-07T09:52:37.602Z,12.9
2019-05-07T09:53:38.374Z,13
2019-05-07T09:54:39.116Z,13
2019-05-07T09:55:39.886Z,13
2019-05-07T09:56:43.082Z,13
2019-05-07T09:57:43.834Z,13
2019-05-07T09:58:45.372Z,13.1
2019-05-07T09:59:46.143Z,12.9
2019-05-07T10:00:46.911Z,13
2019-05-07T10:01:47.704Z,12.9
2019-05-07T10:02:48.472Z,12.8
2019-05-07T10:03:49.239Z,12.4
2019-05-07T10:04:53.425Z,12.4
2019-05-07T10:05:54.167Z,12.4
2019-05-07T10:07:55.462Z,12.6
2019-05-07T10:08:59.002Z,12.8
2019-05-07T10:09:59.762Z,12.9
2019-05-07T10:11:03.444Z,12.9
2019-05-07T10:12:04.238Z,12.8
2019-05-07T10:13:05.004Z,12.9
2019-05-07T10:14:05.764Z,13
2019-05-07T10:15:06.535Z,13.1
2019-05-07T10:16:08.479Z,13.1
2019-05-07T10:17:09.278Z,12.9
2019-05-07T10:18:13.095Z,12.8
2019-05-07T10:19:16.627Z,12.8
2019-05-07T10:20:23.276Z,12.8
2019-05-07T10:21:24.038Z,12.8
2019-05-07T10:22:24.816Z,12.8
2019-05-07T10:23:25.596Z,12.6
2019-05-07T10:24:26.358Z,12.5
2019-05-07T10:25:27.120Z,12.6
2019-05-07T10:27:28.412Z,12.7
2019-05-07T10:28:29.168Z,12.8
2019-05-07T10:29:34.788Z,12.7
2019-05-07T10:30:35.558Z,12.7
2019-05-07T10:32:36.860Z,12.8
2019-05-07T10:33:37.630Z,12.8
2019-05-07T10:34:38.366Z,12.7
2019-05-07T10:35:39.130Z,12.7
2019-05-07T10:36:42.018Z,12.7
2019-05-07T10:37:43.163Z,12.7
2019-05-07T10:38:43.914Z,12.7
2019-05-07T10:39:47.438Z,12.6
2019-05-07T10:40:48.210Z,12.8
2019-05-07T10:41:48.976Z,12.8
2019-05-07T10:42:51.725Z,12.8
2019-05-07T10:43:52.750Z,12.7
2019-05-07T10:45:54.004Z,12.8
2019-05-07T10:46:54.765Z,12.8
2019-05-07T10:47:55.560Z,12.7
2019-05-07T10:48:56.320Z,12.7
2019-05-07T10:50:03.534Z,12.9
2019-05-07T10:51:04.289Z,12.7
2019-05-07T10:52:05.058Z,12.7
2019-05-07T10:53:05.838Z,12.7
2019-05-07T10:54:06.600Z,12.8
2019-05-07T10:55:07.370Z,12.7
2019-05-07T10:56:08.132Z,12.6
2019-05-07T10:57:08.899Z,12.7
2019-05-07T10:58:09.692Z,12.5
2019-05-07T10:59:12.784Z,12.1
2019-05-07T11:00:14.319Z,12
2019-05-07T11:01:15.079Z,12.2
2019-05-07T11:02:15.850Z,12.2
2019-05-07T11:03:16.621Z,12.3
2019-05-07T11:04:17.384Z,12.2
2019-05-07T11:05:18.162Z,12.2
2019-05-07T11:06:18.945Z,12.1
2019-05-07T11:07:19.711Z,12.1
2019-05-07T11:08:26.059Z,12
2019-05-07T11:09:26.822Z,12.1
2019-05-07T11:10:33.400Z,12.2
2019-05-07T11:11:34.168Z,12.2
2019-05-07T11:12:35.099Z,12.2
2019-05-07T11:13:35.928Z,12.3
2019-05-07T11:14:36.688Z,12.4
2019-05-07T11:15:37.460Z,12.6
2019-05-07T11:16:38.230Z,12.6
2019-05-07T11:17:38.996Z,12.6
2019-05-07T11:18:39.782Z,12.7
2019-05-07T11:19:42.343Z,12.7
2019-05-07T11:20:53.684Z,12.7
2019-05-07T11:21:54.410Z,12.7
2019-05-07T11:22:55.171Z,12.8
2019-05-07T11:24:56.470Z,12.6
2019-05-07T11:25:57.237Z,12.6
2019-05-07T11:26:57.997Z,12.5
2019-05-07T11:27:58.752Z,12.5
2019-05-07T11:28:59.544Z,12.5
2019-05-07T11:30:03.412Z,12.5
2019-05-07T11:31:06.946Z,12.5
2019-05-07T11:32:07.721Z,12.3
2019-05-07T11:33:08.483Z,11.9
2019-05-07T11:34:09.267Z,11.3
2019-05-07T11:35:15.438Z,11.3
2019-05-07T11:36:16.197Z,11.3
2019-05-07T11:37:16.968Z,11.4
2019-05-07T11:38:25.491Z,11.4
2019-05-07T11:39:28.590Z,11.4
2019-05-07T11:40:29.371Z,11.6
2019-05-07T11:41:38.307Z,11.6
2019-05-07T11:42:39.064Z,11.5
2019-05-07T11:43:39.830Z,11.4
2019-05-07T11:44:42.782Z,11.4
2019-05-07T11:45:43.540Z,11.4
2019-05-07T11:46:45.171Z,11.3
2019-05-07T11:47:45.931Z,11.4
2019-05-07T11:48:46.689Z,11.6
2019-05-07T11:49:47.479Z,11.7
2019-05-07T11:51:04.823Z,11.5
2019-05-07T11:52:08.359Z,11.6
2019-05-07T11:53:09.114Z,11.7
2019-05-07T11:54:12.307Z,11.8
2019-05-07T11:55:13.585Z,11.8
2019-05-07T11:56:14.343Z,11.9
2019-05-07T11:57:15.115Z,11.9
2019-05-07T11:58:15.889Z,11.9
2019-05-07T11:59:16.639Z,12
2019-05-07T12:00:17.433Z,12
2019-05-07T12:01:18.198Z,12
2019-05-07T12:02:23.342Z,12.1
2019-05-07T12:03:24.105Z,12.2
2019-05-07T12:04:28.691Z,12.2
2019-05-07T12:05:29.467Z,12.3
2019-05-07T12:06:32.509Z,12.3
2019-05-07T12:07:33.497Z,12.4
2019-05-07T12:08:52.299Z,12.4
2019-05-07T12:09:53.350Z,12.5
2019-05-07T12:10:54.148Z,12.5
2019-05-07T12:11:54.915Z,12.6
2019-05-07T12:13:58.060Z,12.8
2019-05-07T12:14:58.822Z,12.6
2019-05-07T12:15:59.609Z,12.5
2019-05-07T12:18:03.839Z,12.6
2019-05-07T12:19:04.598Z,12.6
2019-05-07T12:20:05.357Z,12.3
2019-05-07T12:21:24.339Z,12.4
2019-05-07T12:22:25.118Z,12.6
2019-05-07T12:23:28.660Z,12.5
2019-05-07T12:24:29.424Z,12.5
2019-05-07T12:25:32.663Z,12.5
2019-05-07T12:26:33.445Z,12.6
2019-05-07T12:27:34.253Z,12.6
2019-05-07T12:28:34.982Z,12.6
2019-05-07T12:29:35.744Z,12.5
2019-05-07T12:30:38.815Z,12.6
2019-05-07T12:32:43.428Z,12.7
2019-05-07T12:33:46.958Z,12.6
2019-05-07T12:34:47.719Z,12.5
2019-05-07T12:35:48.483Z,12.4
2019-05-07T12:36:49.260Z,12.5
2019-05-07T12:37:50.325Z,12.4
2019-05-07T12:38:53.069Z,12.4
2019-05-07T12:39:54.066Z,12.3
2019-05-07T12:40:54.833Z,12.3
2019-05-07T12:41:55.603Z,12.3
2019-05-07T12:42:56.419Z,12.3
2019-05-07T12:44:03.203Z,12.2
2019-05-07T12:45:03.973Z,12.1
2019-05-07T12:46:04.737Z,12.1
2019-05-07T12:47:05.527Z,12.3
2019-05-07T12:48:06.299Z,12.3
2019-05-07T12:49:07.054Z,12.2
2019-05-07T12:50:07.831Z,12.2
2019-05-07T12:51:08.589Z,12.3
2019-05-07T12:52:09.391Z,12.4
2019-05-07T12:53:12.210Z,12.4
2019-05-07T12:54:13.807Z,12.4
2019-05-07T12:56:15.071Z,12.5
2019-05-07T12:57:15.843Z,12.4
2019-05-07T12:58:16.613Z,12.4
2019-05-07T12:59:17.371Z,12.3
2019-05-07T13:00:18.127Z,12.4
2019-05-07T13:01:18.883Z,12.4
2019-05-07T13:02:44.265Z,12.4
2019-05-07T13:03:45.125Z,12.4
2019-05-07T13:04:48.671Z,12.5
2019-05-07T13:05:49.431Z,12.6
2019-05-07T13:06:53.078Z,12.6
2019-05-07T13:07:53.849Z,12.7
2019-05-07T13:08:54.619Z,12.7
2019-05-07T13:09:55.371Z,12.7
2019-05-07T13:10:56.143Z,12.8
2019-05-07T13:11:56.905Z,12.8
2019-05-07T13:12:57.716Z,12.8
2019-05-07T13:13:58.459Z,12.9
2019-05-07T13:15:03.675Z,12.8
2019-05-07T13:16:04.444Z,12.9
2019-05-07T13:17:05.207Z,12.9
2019-05-07T13:18:05.993Z,12.9
2019-05-07T13:19:06.770Z,12.9
2019-05-07T13:20:07.634Z,12.8
2019-05-07T13:21:08.412Z,12.9
2019-05-07T13:22:09.182Z,12.9
2019-05-07T13:23:12.339Z,12.9
2019-05-07T13:24:15.655Z,13
2019-05-07T13:25:19.179Z,13.1
2019-05-07T13:26:19.957Z,13.1
2019-05-07T13:27:24.793Z,13.1
2019-05-07T13:28:25.585Z,13
2019-05-07T13:29:26.363Z,13.1
2019-05-07T13:30:27.137Z,13
2019-05-07T13:31:28.439Z,13.1
2019-05-07T13:32:29.218Z,13.2
2019-05-07T13:33:34.507Z,13.2
2019-05-07T13:34:35.452Z,13.1
2019-05-07T13:35:38.991Z,13.1
2019-05-07T13:36:39.751Z,13.2
2019-05-07T13:37:42.494Z,13.2
2019-05-07T13:38:43.362Z,13.1
2019-05-07T13:39:44.105Z,13.1
2019-05-07T13:40:44.868Z,13.1
2019-05-07T13:41:45.628Z,13.1
2019-05-07T13:42:46.389Z,13.1
2019-05-07T13:43:47.169Z,12.9
2019-05-07T13:44:47.924Z,12.9
2019-05-07T13:45:53.794Z,12.9
2019-05-07T13:46:54.551Z,12.9
2019-05-07T13:47:55.316Z,12.9
2019-05-07T13:48:56.116Z,12.8
2019-05-07T13:49:56.894Z,12.8
2019-05-07T13:50:57.663Z,12.8
2019-05-07T13:52:04.337Z,12.9
2019-05-07T13:53:05.083Z,12.9
2019-05-07T13:54:05.886Z,12.9
2019-05-07T13:55:06.636Z,13
2019-05-07T13:56:08.178Z,13
2019-05-07T13:57:08.943Z,13.1
2019-05-07T13:58:09.711Z,13.2
2019-05-07T13:59:14.745Z,13.2
2019-05-07T14:00:15.499Z,13.3
2019-05-07T14:01:16.262Z,13.3
2019-05-07T14:02:17.029Z,13.3
2019-05-07T14:03:22.649Z,13.3
2019-05-07T14:04:23.463Z,13.2
2019-05-07T14:05:24.232Z,13.3
2019-05-07T14:06:27.766Z,13
2019-05-07T14:07:28.544Z,13
2019-05-07T14:08:29.313Z,13
2019-05-07T14:09:33.320Z,13
2019-05-07T14:10:34.518Z,13
2019-05-07T14:11:35.674Z,13.1
2019-05-07T14:12:36.441Z,13.1
2019-05-07T14:13:37.200Z,13.2
2019-05-07T14:14:37.990Z,13.2
2019-05-07T14:15:38.766Z,13.1
2019-05-07T14:16:45.754Z,13.1
2019-05-07T14:17:46.517Z,13.1
2019-05-07T14:18:47.293Z,13.1
2019-05-07T14:19:48.085Z,13
2019-05-07T14:20:48.846Z,13
2019-05-07T14:21:49.619Z,13
2019-05-07T14:22:52.782Z,12.9
2019-05-07T14:23:53.544Z,12.9
2019-05-07T14:24:54.336Z,12.9
2019-05-07T14:25:55.097Z,12.9
2019-05-07T14:26:58.630Z,13
2019-05-07T14:27:59.627Z,12.9
2019-05-07T14:29:02.728Z,13
2019-05-07T14:30:03.561Z,13
2019-05-07T14:31:04.513Z,13.1
2019-05-07T14:32:05.279Z,13
2019-05-07T14:33:06.764Z,13.1
2019-05-07T14:34:07.546Z,13.2
2019-05-07T14:35:08.357Z,13.1
2019-05-07T14:38:14.578Z,12.6
2019-05-07T14:39:15.342Z,12.6
2019-05-07T14:40:16.153Z,12.7